createdAt,value
2023-08-05T00:02:00.627Z,7.73
2023-08-05T00:04:26.829Z,8.30
2023-08-05T00:06:53.339Z,7.77
2023-08-05T00:09:19.702Z,8.07
2023-08-05T00:11:46.180Z,7.57
2023-08-05T00:14:12.835Z,6.97
2023-08-05T00:16:39.087Z,6.70
2023-08-05T00:19:05.350Z,7.00
2023-08-05T00:21:31.514Z,6.73
2023-08-05T00:23:57.871Z,7.20
2023-08-05T00:26:24.033Z,6.10
2023-08-05T00:28:50.282Z,6.17
2023-08-05T00:31:16.494Z,6.90
2023-08-05T00:33:42.644Z,6.37
2023-08-05T00:36:08.784Z,6.10
2023-08-05T00:38:34.886Z,6.23
2023-08-05T00:41:01.391Z,6.10
2023-08-05T00:43:27.930Z,6.20
2023-08-05T00:45:54.612Z,6.17
2023-08-05T00:48:20.814Z,5.00
2023-08-05T00:50:47.151Z,5.03
2023-08-05T00:53:13.418Z,4.87
2023-08-05T00:55:39.934Z,4.70
2023-08-05T00:58:06.222Z,4.90
2023-08-05T01:00:32.443Z,4.73
2023-08-05T01:02:58.663Z,5.07
2023-08-05T01:05:25.247Z,4.80
2023-08-05T01:07:52.042Z,5.10
2023-08-05T01:10:18.489Z,5.30
2023-08-05T01:12:44.823Z,5.70
2023-08-05T01:15:11.154Z,5.87
2023-08-05T01:17:37.322Z,5.23
2023-08-05T01:20:05.536Z,4.50
2023-08-05T01:22:38.136Z,5.27
2023-08-05T01:25:10.541Z,4.87
2023-08-05T01:27:37.761Z,5.40
2023-08-05T01:30:04.985Z,5.13
2023-08-05T01:32:33.930Z,4.77
2023-08-05T01:35:00.249Z,4.60
2023-08-05T01:37:26.629Z,5.23
2023-08-05T01:39:52.802Z,4.70
2023-08-05T01:42:19.079Z,4.30
2023-08-05T01:44:45.310Z,4.30
2023-08-05T01:47:11.897Z,4.40
2023-08-05T01:49:38.271Z,4.50
2023-08-05T01:52:04.749Z,4.10
2023-08-05T01:54:31.861Z,4.00
2023-08-05T01:56:58.127Z,3.87
2023-08-05T01:59:24.354Z,3.73
2023-08-05T02:01:50.899Z,4.00
2023-08-05T02:04:17.227Z,3.93
2023-08-05T02:06:43.900Z,4.13
2023-08-05T02:09:10.401Z,3.33
2023-08-05T02:11:36.590Z,3.80
2023-08-05T02:14:02.857Z,3.03
2023-08-05T02:16:29.042Z,3.90
2023-08-05T02:18:55.325Z,4.03
2023-08-05T02:21:22.490Z,3.53
2023-08-05T02:23:48.689Z,3.33
2023-08-05T02:26:15.173Z,3.63
2023-08-05T02:28:41.423Z,3.17
2023-08-05T02:31:07.705Z,4.00
2023-08-05T02:33:35.494Z,3.20
2023-08-05T02:36:02.415Z,3.40
2023-08-05T02:38:28.621Z,4.17
2023-08-05T02:40:54.872Z,4.00
2023-08-05T02:43:21.313Z,3.33
2023-08-05T02:45:57.600Z,3.43
2023-08-05T02:48:24.224Z,3.80
2023-08-05T02:50:50.749Z,3.53
2023-08-05T02:53:17.379Z,3.70
2023-08-05T02:55:44.156Z,4.10
2023-08-05T02:58:10.776Z,3.33
2023-08-05T03:00:37.105Z,4.60
2023-08-05T03:03:03.796Z,4.33
2023-08-05T03:05:30.163Z,4.30
2023-08-05T03:07:56.534Z,3.87
2023-08-05T03:10:23.145Z,3.80
2023-08-05T03:12:49.680Z,4.10
2023-08-05T03:15:15.922Z,4.67
2023-08-05T03:17:42.781Z,4.77
2023-08-05T03:20:23.082Z,4.33
2023-08-05T03:22:50.002Z,4.40
2023-08-05T03:25:17.778Z,4.33
2023-08-05T03:27:44.421Z,4.50
2023-08-05T03:30:10.870Z,4.00
2023-08-05T03:32:37.568Z,4.40
2023-08-05T03:35:04.187Z,4.40
2023-08-05T03:37:32.270Z,4.73
2023-08-05T03:39:58.859Z,4.40
2023-08-05T03:42:24.751Z,4.97
2023-08-05T03:44:50.661Z,5.07
2023-08-05T03:47:16.972Z,4.90
2023-08-05T03:49:43.390Z,4.83
2023-08-05T03:52:10.099Z,5.07
2023-08-05T03:54:36.070Z,4.80
2023-08-05T03:57:03.907Z,4.60
2023-08-05T03:59:30.950Z,5.07
2023-08-05T04:01:58.871Z,4.53
2023-08-05T04:04:27.427Z,4.27
2023-08-05T04:06:53.790Z,4.97
2023-08-05T04:09:21.677Z,4.30
2023-08-05T04:11:50.247Z,3.40
2023-08-05T04:14:21.834Z,3.00
2023-08-05T04:16:53.041Z,3.00
2023-08-05T04:19:20.291Z,2.27
2023-08-05T04:21:52.741Z,3.10
2023-08-05T04:24:23.163Z,2.73
2023-08-05T04:26:53.879Z,2.43
2023-08-05T04:29:23.989Z,2.53
2023-08-05T04:31:50.610Z,2.20
2023-08-05T04:34:16.783Z,1.90
2023-08-05T04:36:53.596Z,2.30
2023-08-05T04:39:20.629Z,2.07
2023-08-05T04:41:46.953Z,2.00
2023-08-05T04:44:13.144Z,2.50
2023-08-05T04:46:39.307Z,2.50
2023-08-05T04:49:06.476Z,2.40
2023-08-05T04:51:32.672Z,2.60
2023-08-05T04:53:58.843Z,2.37
2023-08-05T04:56:26.000Z,2.30
2023-08-05T04:58:52.296Z,2.43
2023-08-05T05:01:18.639Z,2.57
2023-08-05T05:03:47.741Z,2.47
2023-08-05T05:06:14.207Z,2.00
2023-08-05T05:08:40.500Z,2.20
2023-08-05T05:11:06.907Z,2.63
2023-08-05T05:13:33.032Z,2.60
2023-08-05T05:16:02.721Z,2.23
2023-08-05T05:18:28.973Z,2.67
2023-08-05T05:20:56.011Z,2.70
2023-08-05T05:23:23.936Z,2.70
2023-08-05T05:25:50.072Z,3.00
2023-08-05T05:28:16.573Z,3.10
2023-08-05T05:30:42.824Z,2.57
2023-08-05T05:33:09.289Z,2.80
2023-08-05T05:35:36.007Z,2.73
2023-08-05T05:38:02.400Z,2.50
2023-08-05T05:40:28.703Z,2.97
2023-08-05T05:42:55.075Z,2.83
2023-08-05T05:45:22.546Z,2.80
2023-08-05T05:47:52.505Z,3.00
2023-08-05T05:50:20.552Z,2.80
2023-08-05T05:52:52.487Z,3.10
2023-08-05T05:55:18.857Z,2.97
2023-08-05T05:57:45.568Z,2.93
2023-08-05T06:00:12.248Z,2.67
2023-08-05T06:02:41.967Z,3.00
2023-08-05T06:05:09.067Z,2.70
2023-08-05T06:07:38.667Z,2.90
2023-08-05T06:10:05.137Z,2.67
2023-08-05T06:12:37.527Z,2.40
2023-08-05T06:15:04.527Z,3.20
2023-08-05T06:17:30.893Z,2.50
2023-08-05T06:19:57.223Z,2.80
2023-08-05T06:22:24.530Z,2.90
2023-08-05T06:24:52.073Z,2.73
2023-08-05T06:27:19.315Z,3.00
2023-08-05T06:29:45.850Z,2.83
2023-08-05T06:32:13.408Z,3.40
2023-08-05T06:34:40.325Z,3.70
2023-08-05T06:37:06.712Z,3.67
2023-08-05T06:39:35.885Z,2.77
2023-08-05T06:42:02.339Z,2.97
2023-08-05T06:44:34.210Z,2.87
2023-08-05T06:47:00.964Z,2.80
2023-08-05T06:49:27.378Z,3.10
2023-08-05T06:51:56.355Z,3.27
2023-08-05T06:54:24.728Z,3.40
2023-08-05T06:56:52.776Z,3.60
2023-08-05T06:59:19.465Z,3.10
2023-08-05T07:01:46.166Z,3.10
2023-08-05T07:04:14.107Z,2.73
2023-08-05T07:06:42.644Z,2.90
2023-08-05T07:09:10.869Z,3.33
2023-08-05T07:11:37.556Z,2.60
2023-08-05T07:14:04.420Z,3.13
2023-08-05T07:16:30.844Z,2.80
2023-08-05T07:18:57.213Z,2.90
2023-08-05T07:21:23.677Z,2.60
2023-08-05T07:23:50.130Z,3.20
2023-08-05T07:26:16.403Z,3.13
2023-08-05T07:28:44.541Z,3.50
2023-08-05T07:31:11.752Z,3.03
2023-08-05T07:33:38.884Z,3.27
2023-08-05T07:36:08.315Z,2.63
2023-08-05T07:38:36.791Z,2.80
2023-08-05T07:41:05.094Z,3.30
2023-08-05T07:43:33.723Z,3.07
2023-08-05T07:46:00.719Z,3.00
2023-08-05T07:48:28.498Z,3.10
2023-08-05T07:50:55.231Z,2.50
2023-08-05T07:53:25.223Z,2.80
2023-08-05T07:55:55.297Z,2.97
2023-08-05T07:58:24.254Z,3.20
2023-08-05T08:00:55.471Z,3.10
2023-08-05T08:03:25.587Z,2.93
2023-08-05T08:05:52.139Z,2.83
2023-08-05T08:08:18.565Z,2.90
2023-08-05T08:10:44.956Z,3.63
2023-08-05T08:13:11.673Z,2.87
2023-08-05T08:15:38.020Z,3.07
2023-08-05T08:18:04.751Z,3.53
2023-08-05T08:20:31.149Z,3.20
2023-08-05T08:22:57.520Z,2.70
2023-08-05T08:25:24.093Z,3.30
2023-08-05T08:27:51.126Z,2.63
2023-08-05T08:30:18.495Z,2.60
2023-08-05T08:32:45.003Z,3.73
2023-08-05T08:35:14.490Z,3.00
2023-08-05T08:37:41.451Z,2.60
2023-08-05T08:40:08.972Z,3.00
2023-08-05T08:42:35.988Z,2.77
2023-08-05T08:45:02.951Z,3.20
2023-08-05T08:47:30.057Z,2.77
2023-08-05T08:49:58.563Z,2.33
2023-08-05T08:52:28.493Z,2.70
2023-08-05T08:54:56.365Z,2.50
2023-08-05T08:57:25.733Z,2.60
2023-08-05T08:59:52.252Z,2.80
2023-08-05T09:02:27.123Z,2.50
2023-08-05T09:04:54.596Z,2.20
2023-08-05T09:11:11.950Z,2.20
2023-08-05T09:13:39.426Z,2.40
2023-08-05T09:16:08.588Z,2.50
2023-08-05T09:18:35.426Z,2.60
2023-08-05T09:21:03.308Z,2.37
2023-08-05T09:23:30.147Z,2.20
2023-08-05T09:25:56.570Z,2.87
2023-08-05T09:28:32.595Z,2.70
2023-08-05T09:31:19.827Z,2.30
2023-08-05T09:33:46.389Z,1.53
2023-08-05T09:36:13.912Z,2.63
2023-08-05T09:38:43.853Z,2.10
2023-08-05T09:41:10.972Z,2.60
2023-08-05T09:43:42.903Z,2.67
2023-08-05T09:46:13.494Z,2.50
2023-08-05T09:48:43.932Z,2.47
2023-08-05T09:51:17.543Z,2.30
2023-08-05T09:53:44.215Z,2.80
2023-08-05T09:56:11.666Z,2.47
2023-08-05T09:58:39.064Z,2.53
2023-08-05T10:01:09.243Z,1.97
2023-08-05T10:03:37.470Z,1.90
2023-08-05T10:06:06.018Z,2.33
2023-08-05T10:08:34.079Z,2.40
2023-08-05T10:11:01.829Z,2.43
2023-08-05T10:13:30.818Z,1.80
2023-08-05T10:15:58.658Z,2.00
2023-08-05T10:18:26.164Z,2.40
2023-08-05T10:20:53.847Z,2.10
2023-08-05T10:23:19.962Z,2.27
2023-08-05T10:25:47.529Z,2.10
2023-08-05T10:28:24.002Z,2.47
2023-08-05T10:30:51.001Z,2.00
2023-08-05T10:33:17.959Z,2.57
2023-08-05T10:35:45.847Z,2.50
2023-08-05T10:38:36.525Z,2.03
2023-08-05T10:41:05.772Z,2.27
2023-08-05T10:43:32.718Z,2.07
2023-08-05T10:46:00.590Z,2.17
2023-08-05T10:48:31.390Z,4.40
2023-08-05T10:50:59.016Z,2.10
2023-08-05T10:53:25.573Z,1.60
2023-08-05T10:55:56.499Z,1.73
2023-08-05T10:58:25.475Z,1.97
2023-08-05T11:01:02.588Z,2.40
2023-08-05T11:03:29.568Z,2.07
2023-08-05T11:05:56.901Z,2.23
2023-08-05T11:08:23.873Z,1.90
2023-08-05T11:10:50.788Z,2.20
2023-08-05T11:13:18.039Z,1.93
2023-08-05T11:16:06.794Z,2.30
2023-08-05T11:18:33.628Z,1.70
2023-08-05T11:21:03.359Z,1.83
2023-08-05T11:23:29.816Z,2.00
2023-08-05T11:25:59.593Z,2.20
2023-08-05T11:28:26.342Z,2.47
2023-08-05T11:30:54.497Z,1.80
2023-08-05T11:33:22.017Z,2.00
2023-08-05T11:35:49.163Z,2.70
2023-08-05T11:38:19.037Z,2.63
2023-08-05T11:40:46.678Z,2.40
2023-08-05T11:43:15.458Z,2.30
2023-08-05T11:45:42.177Z,2.47
2023-08-05T11:48:30.422Z,2.13
2023-08-05T11:50:58.854Z,1.70
2023-08-05T11:53:25.733Z,2.10
2023-08-05T11:55:51.835Z,2.07
2023-08-05T11:58:20.038Z,1.57
2023-08-05T12:00:49.084Z,1.83
2023-08-05T12:03:22.296Z,2.47
2023-08-05T12:06:02.878Z,2.53
2023-08-05T12:08:45.784Z,1.53
2023-08-05T12:11:16.160Z,2.30
2023-08-05T12:13:50.610Z,2.10
2023-08-05T12:16:34.551Z,2.30
2023-08-05T12:19:09.867Z,1.80
2023-08-05T12:21:38.659Z,2.20
2023-08-05T12:24:05.296Z,2.50
2023-08-05T12:26:34.297Z,1.77
2023-08-05T12:29:07.688Z,2.03
2023-08-05T12:31:39.252Z,2.00
2023-08-05T12:34:11.421Z,1.80
2023-08-05T12:36:45.476Z,2.40
2023-08-05T12:39:28.569Z,2.00
2023-08-05T12:42:19.806Z,2.00
2023-08-05T12:44:48.156Z,1.60
2023-08-05T12:47:14.940Z,2.10
2023-08-05T12:49:48.236Z,1.50
2023-08-05T12:52:22.752Z,2.10
2023-08-05T12:54:57.829Z,2.00
2023-08-05T12:57:30.270Z,2.07
2023-08-05T13:00:02.323Z,2.27
2023-08-05T13:02:37.193Z,2.10
2023-08-05T13:05:08.572Z,1.87
2023-08-05T13:07:39.304Z,2.57
2023-08-05T13:10:10.267Z,1.93
2023-08-05T13:12:39.331Z,1.87
2023-08-05T13:15:05.979Z,2.13
2023-08-05T13:17:34.626Z,1.90
2023-08-05T13:20:03.294Z,1.97
2023-08-05T13:22:33.433Z,2.00
2023-08-05T13:25:07.644Z,2.20
2023-08-05T13:27:38.526Z,1.70
2023-08-05T13:30:08.559Z,2.30
2023-08-05T13:32:38.005Z,2.23
2023-08-05T13:35:07.513Z,2.03
2023-08-05T13:37:37.499Z,2.03
2023-08-05T13:40:04.122Z,2.00
2023-08-05T13:42:31.080Z,2.10
2023-08-05T13:44:58.040Z,1.90
2023-08-05T13:47:25.648Z,2.07
2023-08-05T13:49:52.050Z,2.30
2023-08-05T13:52:18.685Z,2.20
2023-08-05T13:54:44.982Z,2.40
2023-08-05T13:57:12.454Z,2.07
2023-08-05T13:59:38.882Z,2.13
2023-08-05T14:02:05.279Z,2.60
2023-08-05T14:04:31.745Z,2.10
2023-08-05T14:06:58.458Z,2.03
2023-08-05T14:09:24.796Z,2.10
2023-08-05T14:11:51.684Z,2.10
2023-08-05T14:14:18.145Z,1.83
2023-08-05T14:16:44.642Z,2.00
2023-08-05T14:19:11.112Z,2.27
2023-08-05T14:21:37.475Z,1.90
2023-08-05T14:24:04.199Z,2.20
2023-08-05T14:26:32.554Z,1.80
2023-08-05T14:29:17.871Z,1.97
2023-08-05T14:31:44.544Z,1.83
2023-08-05T14:34:10.904Z,2.20
2023-08-05T14:36:37.736Z,2.00
2023-08-05T14:39:05.707Z,2.10
2023-08-05T14:41:33.138Z,1.80
2023-08-05T14:43:59.508Z,1.70
2023-08-05T14:46:26.235Z,2.53
2023-08-05T14:48:53.493Z,1.93
2023-08-05T14:51:19.986Z,2.07
2023-08-05T14:53:47.365Z,1.93
2023-08-05T14:56:14.372Z,1.80
2023-08-05T14:58:40.786Z,2.30
2023-08-05T15:01:19.948Z,1.73
2023-08-05T15:03:50.839Z,1.70
2023-08-05T15:06:18.828Z,2.00
2023-08-05T15:08:46.693Z,2.13
2023-08-05T15:11:13.856Z,2.00
2023-08-05T15:13:40.998Z,1.80
2023-08-05T15:16:07.902Z,2.07
2023-08-05T15:18:34.282Z,2.10
2023-08-05T15:21:01.304Z,2.07
2023-08-05T15:23:30.893Z,2.13
2023-08-05T15:25:58.478Z,1.40
2023-08-05T15:28:24.930Z,2.00
2023-08-05T15:30:52.673Z,2.00
2023-08-05T15:33:20.250Z,1.60
2023-08-05T15:35:46.880Z,2.30
2023-08-05T15:38:13.135Z,1.70
2023-08-05T15:40:39.455Z,2.10
2023-08-05T15:43:06.083Z,1.77
2023-08-05T15:45:32.634Z,1.90
2023-08-05T15:47:59.146Z,1.90
2023-08-05T15:50:25.707Z,2.30
2023-08-05T15:52:52.516Z,1.93
2023-08-05T15:55:19.131Z,1.97
2023-08-05T15:57:47.541Z,1.63
2023-08-05T16:00:14.592Z,1.80
2023-08-05T16:02:43.272Z,1.87
2023-08-05T16:05:09.735Z,2.33
2023-08-05T16:07:36.901Z,2.20
2023-08-05T16:10:04.076Z,1.90
2023-08-05T16:12:30.621Z,2.33
2023-08-05T16:14:57.428Z,1.93
2023-08-05T16:17:24.884Z,1.60
2023-08-05T16:19:57.192Z,1.70
2023-08-05T16:22:23.622Z,2.37
2023-08-05T16:24:50.630Z,2.30
2023-08-05T16:27:17.563Z,2.27
2023-08-05T16:29:44.035Z,2.10
2023-08-05T16:32:11.474Z,1.90
2023-08-05T16:34:38.141Z,2.07
2023-08-05T16:37:04.642Z,2.10
2023-08-05T16:39:31.032Z,2.33
2023-08-05T16:41:58.063Z,1.97
2023-08-05T16:44:24.922Z,2.10
2023-08-05T16:46:51.779Z,1.77
2023-08-05T16:49:18.241Z,1.83
2023-08-05T16:51:44.993Z,2.30
2023-08-05T16:54:11.389Z,2.27
2023-08-05T16:57:06.794Z,2.00
2023-08-05T16:59:48.692Z,2.07
2023-08-05T17:02:15.063Z,2.40
2023-08-05T17:04:41.433Z,2.13
2023-08-05T17:07:08.577Z,2.90
2023-08-05T17:09:35.269Z,2.80
2023-08-05T17:12:01.735Z,2.80
2023-08-05T17:14:28.057Z,2.37
2023-08-05T17:16:55.502Z,2.50
2023-08-05T17:19:22.332Z,2.40
2023-08-05T17:21:49.271Z,2.43
2023-08-05T17:24:17.187Z,4.70
2023-08-05T17:26:44.020Z,6.67
2023-08-05T17:29:10.858Z,2.07
2023-08-05T17:31:38.754Z,2.20
2023-08-05T17:34:05.639Z,2.77
2023-08-05T17:36:32.081Z,2.60
2023-08-05T17:38:58.367Z,2.80
2023-08-05T17:41:24.832Z,2.90
2023-08-05T17:43:51.114Z,2.97
2023-08-05T17:46:17.455Z,2.93
2023-08-05T17:48:43.762Z,3.07
2023-08-05T17:51:10.099Z,3.47
2023-08-05T17:53:36.531Z,3.63
2023-08-05T17:56:03.114Z,3.50
2023-08-05T17:58:29.629Z,3.60
2023-08-05T18:00:56.606Z,4.53
2023-08-05T18:03:24.081Z,4.63
2023-08-05T18:05:51.148Z,5.10
2023-08-05T18:08:17.553Z,3.83
2023-08-05T18:10:46.232Z,3.50
2023-08-05T18:13:12.593Z,4.80
2023-08-05T18:15:38.868Z,4.10
2023-08-05T18:18:05.993Z,4.40
2023-08-05T18:20:36.816Z,4.90
2023-08-05T18:23:55.830Z,4.97
2023-08-05T18:26:22.370Z,4.80
2023-08-05T18:28:50.637Z,4.70
2023-08-05T18:31:17.413Z,5.10
2023-08-05T18:33:43.884Z,5.20
2023-08-05T18:36:10.486Z,5.03
2023-08-05T18:38:37.475Z,5.13
2023-08-05T18:41:07.839Z,5.60
2023-08-05T18:43:34.744Z,4.97
2023-08-05T18:46:02.014Z,4.97
2023-08-05T18:48:29.032Z,5.70
2023-08-05T18:50:55.636Z,4.77
2023-08-05T18:53:22.191Z,5.60
2023-08-05T18:55:49.087Z,5.40
2023-08-05T18:58:15.557Z,4.97
2023-08-05T19:00:42.681Z,4.60
2023-08-05T19:03:09.644Z,5.03
2023-08-05T19:05:36.043Z,3.97
2023-08-05T19:08:02.453Z,4.80
2023-08-05T19:10:29.366Z,4.00
2023-08-05T19:12:55.676Z,4.73
2023-08-05T19:15:22.004Z,4.07
2023-08-05T19:17:48.353Z,4.70
2023-08-05T19:20:16.909Z,4.73
2023-08-05T19:22:49.519Z,4.33
2023-08-05T19:25:15.948Z,4.47
2023-08-05T19:27:53.484Z,4.63
2023-08-05T19:30:22.126Z,5.10
2023-08-05T19:32:48.410Z,5.53
2023-08-05T19:35:14.744Z,4.40
2023-08-05T19:37:41.009Z,4.47
2023-08-05T19:40:07.606Z,5.10
2023-08-05T19:42:34.880Z,5.73
2023-08-05T19:45:01.374Z,5.37
2023-08-05T19:47:28.559Z,5.30
2023-08-05T19:49:55.128Z,6.10
2023-08-05T19:52:21.394Z,5.17
2023-08-05T19:54:47.705Z,5.47
2023-08-05T19:57:14.055Z,5.17
2023-08-05T19:59:40.381Z,5.10
2023-08-05T20:02:06.960Z,5.17
2023-08-05T20:04:33.581Z,5.53
2023-08-05T20:07:00.445Z,5.30
2023-08-05T20:09:26.899Z,6.17
2023-08-05T20:11:53.549Z,5.90
2023-08-05T20:14:20.027Z,6.00
2023-08-05T20:16:46.374Z,6.03
2023-08-05T20:19:12.797Z,5.90
2023-08-05T20:21:39.115Z,5.73
2023-08-05T20:24:05.647Z,6.07
2023-08-05T20:26:31.936Z,5.43
2023-08-05T20:28:58.351Z,6.13
2023-08-05T20:31:26.938Z,6.60
2023-08-05T20:33:53.321Z,5.70
2023-08-05T20:36:19.558Z,5.60
2023-08-05T20:38:46.015Z,5.10
2023-08-05T20:41:12.373Z,6.17
2023-08-05T20:43:39.150Z,5.50
2023-08-05T20:46:05.579Z,6.00
2023-08-05T20:48:31.988Z,5.80
2023-08-05T20:50:58.826Z,5.17
2023-08-05T20:53:25.301Z,5.80
2023-08-05T20:55:51.977Z,5.03
2023-08-05T20:58:18.375Z,6.10
2023-08-05T21:00:44.672Z,5.40
2023-08-05T21:03:12.379Z,5.17
2023-08-05T21:05:38.907Z,5.60
2023-08-05T21:08:06.357Z,5.57
2023-08-05T21:10:32.660Z,4.93
2023-08-05T21:12:59.046Z,5.17
2023-08-05T21:15:25.664Z,4.80
2023-08-05T21:17:52.032Z,5.57
2023-08-05T21:20:18.786Z,5.37
2023-08-05T21:22:45.075Z,5.30
2023-08-05T21:25:11.690Z,5.70
2023-08-05T21:27:38.034Z,6.17
2023-08-05T21:30:04.529Z,5.20
2023-08-05T21:32:30.884Z,5.60
2023-08-05T21:34:57.246Z,6.07
2023-08-05T21:37:23.622Z,6.93
2023-08-05T21:39:51.735Z,5.97
2023-08-05T21:42:18.083Z,6.00
2023-08-05T21:44:44.384Z,7.07
2023-08-05T21:47:10.668Z,5.90
2023-08-05T21:49:37.109Z,6.20
2023-08-05T21:52:05.957Z,6.43
2023-08-05T21:54:32.394Z,5.40
2023-08-05T21:56:58.725Z,5.17
2023-08-05T21:59:26.476Z,6.70
2023-08-05T22:01:52.861Z,6.80
2023-08-05T22:04:19.429Z,6.87
2023-08-05T22:06:45.746Z,6.70
2023-08-05T22:09:12.137Z,6.73
2023-08-05T22:11:38.548Z,7.53
2023-08-05T22:14:04.835Z,7.40
2023-08-05T22:16:34.374Z,7.23
2023-08-05T22:19:00.698Z,6.23
2023-08-05T22:21:27.096Z,7.10
2023-08-05T22:23:53.729Z,7.30
2023-08-05T22:26:20.069Z,7.63
2023-08-05T22:28:46.593Z,7.80
2023-08-05T22:31:12.977Z,9.07
2023-08-05T22:33:39.289Z,7.40
2023-08-05T22:36:11.829Z,9.43
2023-08-05T22:38:38.660Z,8.97
2023-08-05T22:41:04.993Z,8.60
2023-08-05T22:43:31.507Z,7.80
2023-08-05T22:46:03.058Z,7.90
2023-08-05T22:48:29.934Z,7.83
2023-08-05T22:50:57.592Z,8.10
2023-08-05T22:53:24.934Z,7.67
2023-08-05T22:55:51.312Z,6.83
2023-08-05T22:58:17.649Z,7.20
2023-08-05T23:00:43.954Z,7.97
2023-08-05T23:03:10.403Z,6.97
2023-08-05T23:05:37.550Z,7.30
2023-08-05T23:08:04.086Z,7.10
2023-08-05T23:10:31.479Z,6.93
2023-08-05T23:12:57.922Z,7.77
2023-08-05T23:15:24.385Z,7.57
2023-08-05T23:17:50.719Z,7.20
2023-08-05T23:20:17.056Z,6.73
2023-08-05T23:22:43.911Z,7.20
2023-08-05T23:25:10.364Z,6.93
2023-08-05T23:27:36.760Z,8.00
2023-08-05T23:30:03.158Z,8.40
2023-08-05T23:32:30.458Z,7.30
2023-08-05T23:34:57.005Z,8.00
2023-08-05T23:37:23.465Z,8.10
2023-08-05T23:39:49.836Z,8.53
2023-08-05T23:42:16.161Z,8.20
2023-08-05T23:44:42.470Z,9.20
2023-08-05T23:47:08.828Z,8.50
2023-08-05T23:49:35.235Z,7.67
2023-08-05T23:52:01.624Z,7.93
2023-08-05T23:54:30.082Z,7.67
2023-08-05T23:56:56.474Z,8.30
2023-08-05T23:59:22.920Z,8.40
